Time;durP1;ratioP1;P1;durP2;ratioP2;P2;SDS_P1;SDS_P2;PMS_P1;PMS_P2;Temp;Humidity;BMP_temperature;BMP_pressure;BME280_temperature;BME280_humidity;BME280_pressure;Samples;Min_cycle;Max_cycle;Signal;HPM_P1;HPM_P2
2022/08/22 02:46:50;;;;;;;11.08;9.28;;;;;;;19.67;100.00;98744.33;1818512;79;23479;-55
2022/08/22 02:49:22;;;;;;;18.73;9.83;;;;;;;19.65;100.00;98753.49;1792717;80;21018;-47
2022/08/22 02:52:11;;;;;;;9.95;8.93;;;;;;;19.67;100.00;98754.17;1792713;80;21038;-48
2022/08/22 02:55:00;;;;;;;11.00;9.90;;;;;;;19.65;100.00;98746.32;1792826;80;20999;-54
2022/08/22 02:57:46;;;;;;;12.63;9.45;;;;;;;19.65;100.00;98750.83;1761748;80;20995;-51
2022/08/22 03:00:23;;;;;;;11.60;10.40;;;;;;;19.65;100.00;98754.83;1793114;80;21459;-56
2022/08/22 03:03:05;;;;;;;13.45;9.48;;;;;;;19.67;100.00;98751.50;1793170;80;20983;-48
2022/08/22 03:05:46;;;;;;;11.50;9.80;;;;;;;19.66;100.00;98745.81;1762269;80;21495;-53
2022/08/22 03:08:29;;;;;;;10.45;9.30;;;;;;;19.67;100.00;98741.66;1793073;80;21033;-45
2022/08/22 03:11:20;;;;;;;11.05;8.88;;;;;;;19.65;100.00;98738.83;1793007;80;21018;-51
2022/08/22 03:14:07;;;;;;;11.10;8.85;;;;;;;19.58;100.00;98748.44;1792955;80;20986;-52
2022/08/22 03:16:56;;;;;;;14.35;9.43;;;;;;;19.64;100.00;98751.81;1793133;80;20998;-51
2022/08/22 03:19:49;;;;;;;13.70;9.38;;;;;;;19.61;100.00;98754.30;1793092;80;21006;-46
2022/08/22 03:22:44;;;;;;;12.28;9.33;;;;;;;19.67;100.00;98755.50;1793099;80;21021;-50
2022/08/22 03:25:29;;;;;;;13.43;9.45;;;;;;;19.69;100.00;98756.19;1762325;80;20987;-49
2022/08/22 03:28:15;;;;;;;13.40;9.15;;;;;;;19.64;100.00;98747.80;1793023;80;21448;-54
2022/08/22 03:30:46;;;;;;;13.45;9.35;;;;;;;19.67;100.00;98748.33;1762051;80;21045;-46
2022/08/22 03:33:19;;;;;;;11.65;9.28;;;;;;;19.59;100.00;98750.09;1790789;80;20963;-44
2022/08/22 03:36:03;;;;;;;13.90;8.30;;;;;;;19.65;100.00;98752.98;1792925;80;21049;-53
2022/08/22 03:38:37;;;;;;;10.82;8.85;;;;;;;19.64;100.00;98758.48;1792974;80;21499;-46
2022/08/22 03:41:43;;;;;;;14.85;9.23;;;;;;;19.57;100.00;98758.25;1792986;80;21461;-49
2022/08/22 03:44:50;;;;;;;11.08;9.10;;;;;;;19.58;100.00;98756.44;1792931;80;20990;-43
2022/08/22 03:47:48;;;;;;;11.53;8.78;;;;;;;19.56;100.00;98769.42;1793031;80;21034;-49
2022/08/22 03:50:42;;;;;;;15.83;10.63;;;;;;;19.58;100.00;98772.45;1792516;80;21003;-46
2022/08/22 03:53:37;;;;;;;11.68;10.48;;;;;;;19.61;100.00;98772.11;1791963;80;21030;-49
2022/08/22 03:56:29;;;;;;;13.08;10.03;;;;;;;19.63;100.00;98767.45;1792869;80;21034;-50
2022/08/22 03:59:33;;;;;;;12.60;9.18;;;;;;;19.68;100.00;98770.50;1791693;80;21010;-45
2022/08/22 04:02:29;;;;;;;10.35;8.48;;;;;;;19.71;100.00;98765.69;1792471;80;21003;-52
2022/08/22 04:05:38;;;;;;;15.88;9.03;;;;;;;19.77;100.00;98768.77;1792506;80;20963;-50
2022/08/22 04:08:59;;;;;;;11.55;8.30;;;;;;;19.79;100.00;98762.27;1791723;80;21495;-43
2022/08/22 04:12:02;;;;;;;8.38;7.10;;;;;;;19.75;100.00;98768.44;1792392;80;21015;-46
2022/08/22 04:14:39;;;;;;;9.58;7.53;;;;;;;19.81;100.00;98768.31;1792430;80;21594;-53
2022/08/22 04:17:43;;;;;;;10.58;7.80;;;;;;;19.89;100.00;98772.85;1792543;80;20975;-52
2022/08/22 04:20:46;;;;;;;10.15;7.62;;;;;;;19.94;100.00;98772.72;1792388;80;21551;-55
2022/08/22 04:23:35;;;;;;;8.98;8.08;;;;;;;20.00;100.00;98771.25;1792398;80;21483;-55
2022/08/22 04:26:12;;;;;;;9.35;8.43;;;;;;;20.06;100.00;98771.11;1784853;80;21017;-45
2022/08/22 04:28:49;;;;;;;8.78;7.80;;;;;;;20.11;100.00;98776.81;1767377;81;20955;-48
2022/08/22 04:31:21;;;;;;;;;;;;;;;20.17;100.00;98782.84;1769879;81;20955;-49
2022/08/22 04:34:20;;;;;;;10.45;7.55;;;;;;;20.17;100.00;98786.84;1765817;81;20114;-55
2022/08/22 04:36:51;;;;;;;12.50;7.75;;;;;;;20.14;100.00;98785.85;1766728;81;20966;-54
2022/08/22 04:39:26;;;;;;;7.90;6.87;;;;;;;20.14;100.00;98791.19;1766940;81;21507;-50
2022/08/22 04:42:20;;;;;;;8.28;7.00;;;;;;;20.12;99.68;98791.34;1766130;81;20986;-52
2022/08/22 04:45:07;;;;;;;7.55;6.85;;;;;;;20.11;98.90;98790.16;1743166;80;21456;-50
2022/08/22 04:47:47;;;;;;;10.98;7.65;;;;;;;20.00;98.07;98796.60;1743929;82;20959;-50
2022/08/22 04:50:40;;;;;;;9.93;7.10;;;;;;;20.01;98.16;98803.63;1753743;82;21003;-41
2022/08/22 04:53:31;;;;;;;10.70;6.75;;;;;;;19.96;97.55;98796.58;1753744;82;20972;-53
2022/08/22 04:56:39;;;;;;;11.15;7.10;;;;;;;19.96;97.86;98801.92;1753746;82;21442;-53
2022/08/22 04:59:15;;;;;;;10.43;7.58;;;;;;;20.01;98.07;98802.77;1753215;82;20995;-56
2022/08/22 05:01:55;;;;;;;9.83;7.30;;;;;;;20.02;97.65;98797.78;1753885;82;21483;-51
2022/08/22 05:04:32;;;;;;;12.70;7.65;;;;;;;20.07;97.55;98809.66;1753718;82;20999;-50
2022/08/22 05:07:06;;;;;;;9.90;7.10;;;;;;;20.06;97.14;98800.47;1754044;82;20991;-43
2022/08/22 05:09:36;;;;;;;10.00;6.97;;;;;;;20.02;96.88;98804.45;1753591;82;21477;-50
2022/08/22 05:12:10;;;;;;;8.23;7.17;;;;;;;20.00;96.46;98799.78;1753834;82;20995;-47
2022/08/22 05:14:46;;;;;;;10.70;6.87;;;;;;;19.96;96.47;98809.92;1753673;82;20972;-51
2022/08/22 05:17:18;;;;;;;12.20;7.45;;;;;;;20.00;96.06;98805.11;1753718;82;21047;-48
2022/08/22 05:19:49;;;;;;;10.82;7.85;;;;;;;19.93;96.20;98807.06;1753702;82;21009;-49
2022/08/22 05:22:28;;;;;;;10.68;7.35;;;;;;;19.94;96.27;98802.08;1753621;82;21002;-47
2022/08/22 05:25:02;;;;;;;10.93;7.80;;;;;;;19.90;96.33;98805.20;1753026;82;21456;-46
2022/08/22 05:27:33;;;;;;;12.88;7.10;;;;;;;19.94;96.35;98808.74;1752217;82;20955;-49
2022/08/22 05:30:08;;;;;;;12.30;7.17;;;;;;;19.96;95.89;98810.43;1753651;82;20967;-53
2022/08/22 05:32:39;;;;;;;12.10;7.50;;;;;;;19.87;96.03;98805.02;1753414;82;20990;-49
2022/08/22 05:35:08;;;;;;;9.28;7.15;;;;;;;19.97;96.33;98812.09;1746134;82;21062;-43
2022/08/22 05:37:42;;;;;;;11.88;7.90;;;;;;;20.01;95.83;98816.97;1752626;82;21019;-49
2022/08/22 05:40:23;;;;;;;10.63;7.12;;;;;;;20.01;95.98;98819.64;1752452;82;21006;-50
2022/08/22 05:42:51;;;;;;;8.25;7.42;;;;;;;20.05;95.56;98824.17;1753047;82;20987;-47
2022/08/22 05:45:18;;;;;;;14.15;7.47;;;;;;;20.04;95.74;98825.98;1753198;80;21109;-49
2022/08/22 05:47:58;;;;;;;13.05;7.45;;;;;;;20.06;95.21;98826.66;1749403;82;21022;-55
2022/08/22 05:50:37;;;;;;;9.33;7.62;;;;;;;20.10;95.38;98832.52;1749308;82;21023;-43
2022/08/22 05:53:36;;;;;;;12.35;7.45;;;;;;;20.07;95.01;98834.19;1749401;82;20980;-54
2022/08/22 05:56:26;;;;;;;15.55;7.72;;;;;;;20.10;95.14;98837.38;1748029;82;20991;-55
2022/08/22 05:59:09;;;;;;;19.00;8.33;;;;;;;20.18;95.11;98836.59;1749165;82;20959;-55
2022/08/22 06:01:50;;;;;;;10.32;7.67;;;;;;;20.06;95.85;98844.00;1748265;80;21457;-46
2022/08/22 06:04:39;;;;;;;11.15;8.50;;;;;;;20.16;96.03;98844.42;1749305;82;21595;-48
2022/08/22 06:07:18;;;;;;;12.05;8.05;;;;;;;20.17;95.19;98845.58;1747493;82;21163;-54
2022/08/22 06:10:08;;;;;;;12.50;8.40;;;;;;;20.06;95.76;98846.67;1749269;80;21031;-50
2022/08/22 06:12:38;;;;;;;14.60;8.98;;;;;;;20.16;95.54;98842.59;1756327;80;21013;-53
2022/08/22 06:15:22;;;;;;;14.40;7.92;;;;;;;20.26;95.29;98844.63;1783862;80;20943;-54
2022/08/22 06:17:56;;;;;;;14.03;8.40;;;;;;;20.33;95.02;98843.00;1776783;81;20959;-51
2022/08/22 06:20:31;;;;;;;13.35;8.28;;;;;;;20.33;95.20;98839.00;1776229;81;20947;-50
2022/08/22 06:23:01;;;;;;;14.90;8.28;;;;;;;20.47;94.73;98846.10;1776083;81;20975;-49
2022/08/22 06:25:34;;;;;;;15.48;7.90;;;;;;;20.46;94.49;98837.73;1776766;79;21034;-53
2022/08/22 06:28:08;;;;;;;13.10;8.48;;;;;;;20.59;94.93;98836.81;1777110;81;21009;-52
2022/08/22 06:30:35;;;;;;;16.15;8.05;;;;;;;20.73;94.65;98838.56;1776867;81;20963;-45
2022/08/22 06:33:09;;;;;;;12.05;8.40;;;;;;;20.78;93.56;98845.61;1776720;79;21398;-48
2022/08/22 06:38:32;;;;;;;12.37;8.25;;;;;;;20.86;92.49;98840.27;1775391;81;21046;-58
2022/08/22 06:41:02;;;;;;;9.95;8.10;;;;;;;20.87;91.84;98844.64;1775788;81;21018;-45
2022/08/22 06:43:34;;;;;;;10.00;7.95;;;;;;;20.84;91.17;98836.93;1747295;81;21022;-51
2022/08/22 06:46:00;;;;;;;10.43;7.75;;;;;;;20.87;91.23;98845.46;1773311;80;21035;-45
2022/08/22 06:48:26;;;;;;;14.35;8.23;;;;;;;20.93;91.16;98847.98;1770872;81;21026;-46
2022/08/22 06:50:57;;;;;;;9.85;7.35;;;;;;;20.92;91.08;98852.15;1771048;79;21017;-49
2022/08/22 06:53:31;;;;;;;12.58;7.42;;;;;;;20.94;91.35;98856.36;1771643;81;20959;-51
2022/08/22 06:56:03;;;;;;;12.10;7.90;;;;;;;21.04;91.31;98858.88;1770996;79;21018;-47
2022/08/22 06:58:35;;;;;;;14.18;7.78;;;;;;;21.07;90.74;98862.06;1770915;81;21475;-45
2022/08/22 07:01:09;;;;;;;9.90;7.33;;;;;;;21.19;90.78;98865.77;1771064;81;21338;-52
2022/08/22 07:03:40;;;;;;;10.93;7.42;;;;;;;21.32;90.49;98870.64;1770420;81;21560;-45
2022/08/22 07:06:14;;;;;;;9.90;7.47;;;;;;;21.49;90.09;98874.23;1770537;81;21078;-48
2022/08/22 07:08:41;;;;;;;7.95;6.53;;;;;;;21.59;89.39;98877.57;1770708;81;21062;-52
2022/08/22 07:11:20;;;;;;;9.78;7.33;;;;;;;21.72;89.09;98887.30;1771003;81;21030;-56
2022/08/22 07:13:55;;;;;;;9.53;7.12;;;;;;;21.76;89.13;98880.61;1770200;81;21093;-55
2022/08/22 07:16:57;;;;;;;8.85;7.25;;;;;;;21.81;87.79;98879.61;1767654;81;21066;-54
2022/08/22 07:19:30;;;;;;;9.08;7.42;;;;;;;21.86;88.20;98880.43;1770963;81;21049;-47
2022/08/22 07:21:58;;;;;;;8.55;6.58;;;;;;;21.91;87.64;98875.92;1771670;80;21511;-45
2022/08/22 07:24:28;;;;;;;11.28;7.15;;;;;;;21.99;87.68;98872.75;1771238;79;21061;-47
2022/08/22 07:27:10;;;;;;;9.80;6.75;;;;;;;21.99;86.49;98875.43;1771416;81;21018;-44
2022/08/22 07:30:03;;;;;;;12.23;6.92;;;;;;;21.96;85.37;98880.28;1771039;81;21046;-56
2022/08/22 07:32:49;;;;;;;14.23;6.47;;;;;;;22.00;85.75;98870.91;1769898;79;21069;-45
2022/08/22 07:35:23;;;;;;;10.53;7.20;;;;;;;22.09;86.11;98874.41;1770854;81;20987;-46
2022/08/22 07:37:57;;;;;;;8.83;6.22;;;;;;;22.17;85.89;98873.87;1770630;79;21761;-51
2022/08/22 07:41:04;;;;;;;8.83;5.85;;;;;;;22.16;84.40;98872.73;1770746;81;20999;-47
2022/08/22 07:43:48;;;;;;;10.68;5.83;;;;;;;22.23;83.88;98871.88;1758346;80;21019;-52
2022/08/22 07:46:28;;;;;;;10.82;6.50;;;;;;;22.32;84.41;98866.04;1748286;82;21055;-43
2022/08/22 07:48:59;;;;;;;20.60;6.67;;;;;;;22.30;83.09;98865.34;1752614;81;21000;-59
2022/08/22 07:51:42;;;;;;;12.35;6.70;;;;;;;22.37;83.69;98866.84;1747603;82;21025;-50
2022/08/22 07:54:13;;;;;;;10.72;6.45;;;;;;;22.46;83.27;98867.16;1752456;82;21063;-50
2022/08/22 07:56:53;;;;;;;9.75;5.95;;;;;;;22.54;83.36;98868.49;1751177;82;21062;-52
2022/08/22 07:59:23;;;;;;;8.78;6.45;;;;;;;22.51;82.64;98875.53;1752112;82;21054;-55
2022/08/22 08:01:57;;;;;;;11.93;6.12;;;;;;;22.53;83.12;98866.80;1768690;80;21026;-48
2022/08/22 08:04:33;;;;;;;11.63;6.28;;;;;;;22.57;82.58;98869.98;1783497;80;21027;-52
2022/08/22 08:07:02;;;;;;;7.92;5.97;;;;;;;22.62;82.86;98874.32;1783591;80;21018;-52
2022/08/22 08:09:32;;;;;;;10.48;6.17;;;;;;;22.73;82.72;98874.45;1754820;80;21602;-58
2022/08/22 08:12:01;;;;;;;13.80;6.12;;;;;;;22.75;82.06;98873.26;1784454;80;21019;-55
2022/08/22 08:14:29;;;;;;;7.60;5.72;;;;;;;22.76;81.38;98880.31;1783766;80;21518;-52
2022/08/22 08:17:18;;;;;;;7.78;5.83;;;;;;;22.88;81.87;98880.75;1784567;80;20983;-46
2022/08/22 08:19:46;;;;;;;7.42;5.75;;;;;;;23.05;81.98;98880.70;1782001;80;21101;-53
2022/08/22 08:22:20;;;;;;;9.73;6.22;;;;;;;23.20;81.15;98884.33;1783551;80;21008;-48
2022/08/22 08:24:48;;;;;;;7.28;5.70;;;;;;;23.09;79.68;98878.85;1783673;80;21122;-55
2022/08/22 08:30:17;;;;;;;9.68;6.00;;;;;;;23.34;80.70;98884.92;1783121;80;21054;-58
2022/08/22 08:32:54;;;;;;;8.70;5.72;;;;;;;23.36;79.31;98892.28;1783155;80;21073;-50
2022/08/22 08:35:26;;;;;;;13.75;6.53;;;;;;;23.43;79.09;98890.22;1783301;80;21595;-49
2022/08/22 08:38:12;;;;;;;9.33;5.90;;;;;;;23.42;78.11;98884.55;1783687;80;21512;-46
2022/08/22 08:41:09;;;;;;;7.85;5.95;;;;;;;23.34;75.96;98894.31;1783751;80;20967;-50
2022/08/22 08:44:06;;;;;;;7.05;5.42;;;;;;;23.17;75.86;98897.57;1784538;80;20992;-55
2022/08/22 08:46:56;;;;;;;9.78;5.78;;;;;;;23.33;77.20;98888.61;1782559;80;21066;-47
2022/08/22 08:49:42;;;;;;;10.95;5.97;;;;;;;23.32;77.33;98889.63;1785500;80;21070;-51
2022/08/22 08:52:14;;;;;;;15.20;6.03;;;;;;;23.36;77.35;98890.94;1785962;80;21531;-46
2022/08/22 08:55:03;;;;;;;10.05;6.20;;;;;;;23.42;76.60;98890.73;1786343;80;21550;-44
2022/08/22 08:58:05;;;;;;;9.53;6.03;;;;;;;23.52;76.97;98883.78;1784503;80;21035;-46
2022/08/22 09:01:10;;;;;;;17.00;5.85;;;;;;;23.58;76.72;98885.27;1786140;80;21075;-57
2022/08/22 09:04:29;;;;;;;9.10;5.65;;;;;;;23.63;76.44;98890.11;1771699;80;21023;-48
2022/08/22 09:07:10;;;;;;;11.40;5.45;;;;;;;23.70;76.80;98890.20;1785927;80;21546;-48
2022/08/22 09:09:59;;;;;;;9.68;5.37;;;;;;;23.84;76.54;98892.66;1752305;80;20991;-47
2022/08/22 09:12:46;;;;;;;11.25;5.83;;;;;;;23.98;76.29;98891.02;1785691;80;21339;-56
2022/08/22 09:15:43;;;;;;;10.68;5.92;;;;;;;24.14;76.31;98890.39;1785869;80;21324;-54
2022/08/22 09:18:29;;;;;;;9.18;5.87;;;;;;;24.32;75.00;98887.37;1785798;80;21077;-50
2022/08/22 09:21:16;;;;;;;10.60;5.33;;;;;;;24.48;74.57;98884.99;1785568;80;21563;-50
2022/08/22 09:24:09;;;;;;;;;;;;;;;24.57;73.02;98883.61;1788393;80;21065;-46
2022/08/22 09:26:47;;;;;;;7.10;4.97;;;;;;;24.59;72.15;98882.91;1786308;80;20100;-50
2022/08/22 09:29:41;;;;;;;6.83;5.40;;;;;;;24.61;73.34;98887.59;1785901;80;21535;-43
2022/08/22 09:32:22;;;;;;;7.95;5.60;;;;;;;24.66;72.73;98879.80;1785745;80;21094;-46
2022/08/22 09:35:19;;;;;;;8.68;5.58;;;;;;;24.66;71.88;98883.84;1786023;80;21019;-55
2022/08/22 09:38:34;;;;;;;9.25;5.10;;;;;;;24.82;71.32;98877.44;1786626;80;20995;-54
2022/08/22 09:41:20;;;;;;;10.72;5.37;;;;;;;25.10;71.56;98884.30;1786264;80;21576;-58
2022/08/22 09:43:55;;;;;;;10.88;5.60;;;;;;;25.32;70.54;98873.61;1786226;80;21023;-53
2022/08/22 09:46:32;;;;;;;8.55;4.97;;;;;;;25.33;69.00;98877.98;1782760;80;21177;-46
2022/08/22 09:49:15;;;;;;;10.78;5.95;;;;;;;25.37;69.36;98877.39;1784147;80;21057;-53
2022/08/22 09:52:11;;;;;;;8.73;5.37;;;;;;;25.25;68.65;98874.88;1785824;80;21010;-59
2022/08/22 09:54:51;;;;;;;8.03;5.90;;;;;;;25.14;69.09;98876.20;1783836;80;21058;-50
2022/08/22 09:57:43;;;;;;;11.63;5.53;;;;;;;25.11;69.27;98871.18;1767427;80;21265;-54
2022/08/22 10:00:26;;;;;;;11.18;5.83;;;;;;;25.02;68.87;98873.66;1759364;80;21097;-46
2022/08/22 10:03:27;;;;;;;9.08;5.78;;;;;;;24.96;68.46;98875.25;1783489;80;21017;-56
2022/08/22 10:06:01;;;;;;;7.30;5.62;;;;;;;25.10;68.69;98871.70;1790398;80;21005;-41
2022/08/22 10:08:49;;;;;;;19.73;5.67;;;;;;;25.60;69.18;98878.58;1793549;80;21568;-48
2022/08/22 10:11:32;;;;;;;10.88;5.80;;;;;;;25.90;67.34;98877.59;1793589;80;21568;-51
2022/08/22 10:14:19;;;;;;;10.50;5.45;;;;;;;25.92;66.61;98875.02;1794401;79;20958;-55
2022/08/22 10:17:17;;;;;;;8.58;5.37;;;;;;;25.75;65.99;98877.16;1793754;80;21061;-51
2022/08/22 10:19:48;;;;;;;9.80;5.90;;;;;;;25.83;66.37;98877.04;1788322;80;20982;-48
2022/08/22 10:22:22;;;;;;;8.00;5.33;;;;;;;25.80;65.84;98879.28;1777420;81;21015;-52
2022/08/22 10:25:13;;;;;;;7.10;5.30;;;;;;;25.72;65.06;98880.23;1769924;81;21018;-48
2022/08/22 10:28:04;;;;;;;9.43;5.42;;;;;;;25.68;65.76;98877.61;1778944;80;21685;-50
2022/08/22 10:30:48;;;;;;;6.28;5.58;;;;;;;25.85;65.46;98879.55;1778812;81;20987;-48
2022/08/22 10:33:50;;;;;;;7.60;5.17;;;;;;;26.07;65.02;98879.52;1779266;81;21523;-44
2022/08/22 10:36:33;;;;;;;8.70;5.30;;;;;;;26.21;65.44;98875.41;1778144;81;21017;-53
2022/08/22 10:39:02;;;;;;;9.83;5.33;;;;;;;26.14;64.22;98876.37;1779188;81;21551;-51
2022/08/22 10:42:12;;;;;;;8.05;5.45;;;;;;;25.46;63.26;98876.25;1778662;80;21924;-53
2022/08/22 10:44:59;;;;;;;6.80;4.95;;;;;;;25.45;64.21;98879.13;1776862;81;21030;-45
2022/08/22 10:47:53;;;;;;;8.85;6.08;;;;;;;25.33;64.46;98876.64;1776539;80;21007;-48
2022/08/22 10:50:45;;;;;;;15.48;6.03;;;;;;;25.16;65.09;98880.87;1772762;81;20995;-58
2022/08/22 10:53:41;;;;;;;11.68;5.70;;;;;;;25.15;65.36;98880.53;1772461;81;21062;-52
2022/08/22 10:56:59;;;;;;;10.18;6.30;;;;;;;25.09;65.58;98878.61;1773095;80;20991;-53
2022/08/22 10:59:39;;;;;;;7.15;5.70;;;;;;;24.92;65.58;98877.97;1772043;80;21027;-51
2022/08/22 11:02:44;;;;;;;7.37;5.53;;;;;;;24.79;66.07;98873.77;1778696;81;21026;-49
2022/08/22 11:05:33;;;;;;;8.95;5.70;;;;;;;24.76;66.53;98873.65;1778579;81;21015;-54
2022/08/22 11:08:14;;;;;;;8.98;5.85;;;;;;;24.74;66.71;98874.84;1778665;81;21020;-56
2022/08/22 11:11:00;;;;;;;8.03;6.17;;;;;;;24.75;66.67;98875.17;1776931;80;21031;-50
2022/08/22 11:13:43;;;;;;;8.23;5.80;;;;;;;24.82;66.90;98875.58;1778457;81;21003;-56
2022/08/22 11:16:59;;;;;;;8.58;5.92;;;;;;;24.92;66.16;98879.31;1778311;80;21457;-49
2022/08/22 11:19:42;;;;;;;11.35;5.90;;;;;;;25.09;65.60;98877.27;1776926;80;21016;-52
2022/08/22 11:22:23;;;;;;;6.80;5.95;;;;;;;25.24;65.39;98874.56;1778657;81;21083;-54
2022/08/22 11:25:15;;;;;;;6.05;5.28;;;;;;;25.34;65.53;98874.25;1754428;80;20999;-53
2022/08/22 11:27:57;;;;;;;9.60;5.65;;;;;;;25.53;65.23;98877.67;1722413;83;21471;-46
2022/08/22 11:30:58;;;;;;;8.85;5.55;;;;;;;25.63;64.94;98874.16;1721477;83;21013;-49
2022/08/22 11:33:41;;;;;;;7.35;5.62;;;;;;;25.63;64.92;98882.73;1693660;83;21078;-51
2022/08/22 11:36:27;;;;;;;12.37;6.08;;;;;;;25.62;64.64;98885.12;1719598;83;21055;-50
2022/08/22 11:39:39;;;;;;;12.77;5.73;;;;;;;25.58;64.54;98883.84;1721243;83;21068;-48
2022/08/22 11:42:28;;;;;;;9.63;5.50;;;;;;;25.48;64.55;98883.62;1720970;83;21065;-50
2022/08/22 11:44:57;;;;;;;7.05;5.60;;;;;;;25.45;64.42;98889.89;1720614;83;21025;-47
2022/08/22 11:47:31;;;;;;;8.93;5.62;;;;;;;25.35;64.31;98890.73;1711298;83;21059;-45
2022/08/22 11:50:26;;;;;;;9.05;5.92;;;;;;;25.23;64.79;98888.52;1692778;85;21039;-53
2022/08/22 11:53:10;;;;;;;8.55;6.17;;;;;;;25.07;65.22;98880.66;1692354;85;21041;-56
2022/08/22 11:55:59;;;;;;;12.53;6.53;;;;;;;24.93;65.31;98885.03;1693180;85;21030;-55
2022/08/22 11:59:00;;;;;;;12.88;6.47;;;;;;;24.86;65.38;98887.63;1678236;84;21082;-50
2022/08/22 12:01:46;;;;;;;9.78;5.85;;;;;;;24.75;66.05;98881.37;1692382;85;21058;-50
2022/08/22 12:04:23;;;;;;;9.50;6.10;;;;;;;24.78;66.14;98881.53;1714051;81;20994;-49
2022/08/22 12:06:58;;;;;;;12.13;5.85;;;;;;;24.78;66.68;98881.02;1756678;81;20991;-43
2022/08/22 12:09:46;;;;;;;11.80;6.33;;;;;;;24.83;66.36;98886.67;1756617;81;21147;-53
2022/08/22 12:12:45;;;;;;;8.93;6.37;;;;;;;24.89;66.34;98885.91;1749302;81;21546;-54
2022/08/22 12:15:34;;;;;;;9.80;6.50;;;;;;;25.05;66.42;98884.88;1757987;81;21043;-54
2022/08/22 12:18:18;;;;;;;13.55;6.62;;;;;;;25.29;66.42;98885.60;1758050;81;20964;-44
2022/08/22 12:21:04;;;;;;;8.48;6.78;;;;;;;25.37;63.95;98886.81;1757766;81;21023;-53
2022/08/22 12:23:55;;;;;;;8.58;5.72;;;;;;;25.69;65.06;98884.67;1756529;81;20963;-48
2022/08/22 12:26:49;;;;;;;12.05;6.00;;;;;;;26.20;65.04;98883.69;1758489;81;21519;-50
2022/08/22 12:29:40;;;;;;;7.62;5.33;;;;;;;27.24;63.66;98888.75;1758503;81;21006;-54
2022/08/22 12:32:35;;;;;;;8.35;5.60;;;;;;;27.90;61.34;98888.92;1757610;80;21042;-52
2022/08/22 12:35:46;;;;;;;9.25;5.17;;;;;;;28.07;59.69;98892.06;1757205;81;21575;-51
2022/08/22 12:38:36;;;;;;;7.62;4.95;;;;;;;28.79;58.98;98876.48;1757726;81;22179;-44
2022/08/22 12:41:19;;;;;;;8.70;4.87;;;;;;;30.08;56.59;98874.52;1749383;81;21559;-53
2022/08/22 12:44:41;;;;;;;9.80;5.03;;;;;;;30.90;53.94;98871.61;1757591;81;21031;-52
2022/08/22 12:47:30;;;;;;;11.22;4.95;;;;;;;31.16;51.08;98871.86;1760582;80;21170;-48
2022/08/22 12:50:02;;;;;;;10.70;5.03;;;;;;;31.81;48.34;98873.57;1777209;80;21051;-48
2022/08/22 12:53:06;;;;;;;10.00;4.70;;;;;;;32.54;48.40;98858.71;1770001;80;21055;-46
2022/08/22 12:56:12;;;;;;;7.55;4.37;;;;;;;33.31;47.27;98859.50;1778101;81;21551;-44
2022/08/22 12:59:03;;;;;;;10.58;4.45;;;;;;;33.54;45.20;98855.30;1777691;81;21000;-55
2022/08/22 13:01:43;;;;;;;8.70;4.90;;;;;;;33.08;43.78;98855.78;1777526;80;21038;-53
2022/08/22 13:04:26;;;;;;;8.45;4.47;;;;;;;32.76;41.83;98850.77;1778470;81;21075;-48
2022/08/22 13:07:12;;;;;;;7.45;4.37;;;;;;;32.57;43.79;98853.34;1777957;81;22053;-54
2022/08/22 13:09:40;;;;;;;10.45;4.53;;;;;;;30.42;45.71;98855.56;1777290;80;20975;-45
2022/08/22 13:12:27;;;;;;;8.58;4.40;;;;;;;30.51;47.24;98850.67;1756532;81;21087;-53
2022/08/22 13:15:07;;;;;;;15.90;5.45;;;;;;;30.16;48.70;98843.58;1777972;80;21026;-47
2022/08/22 13:17:34;;;;;;;11.15;4.30;;;;;;;30.29;48.32;98839.91;1775625;79;21873;-55
2022/08/22 13:20:09;;;;;;;6.95;4.28;;;;;;;29.83;48.98;98845.55;1778940;81;20952;-50
2022/08/22 13:22:39;;;;;;;11.70;4.80;;;;;;;29.70;48.71;98840.18;1778748;81;20991;-50
2022/08/22 13:25:23;;;;;;;5.20;4.47;;;;;;;29.09;50.13;98842.95;1778748;81;20988;-52
2022/08/22 13:27:59;;;;;;;10.28;4.87;;;;;;;28.73;50.87;98835.41;1777185;80;21065;-57
2022/08/22 13:30:35;;;;;;;9.43;5.10;;;;;;;28.52;51.80;98834.08;1778410;80;21575;-52
2022/08/22 13:33:08;;;;;;;9.83;4.63;;;;;;;28.59;52.13;98834.08;1779010;81;21018;-47
2022/08/22 13:35:51;;;;;;;11.50;5.62;;;;;;;28.33;52.98;98835.77;1778671;80;21453;-55
2022/08/22 13:38:39;;;;;;;8.00;4.90;;;;;;;28.39;52.59;98840.03;1778573;81;21346;-47
2022/08/22 13:41:08;;;;;;;12.80;4.67;;;;;;;27.88;54.37;98836.92;1778750;81;21010;-54
2022/08/22 13:43:55;;;;;;;11.12;5.15;;;;;;;27.78;53.70;98844.64;1778742;81;21026;-54
2022/08/22 13:46:25;;;;;;;12.75;4.95;;;;;;;27.74;54.21;98834.77;1761512;81;20984;-45
2022/08/22 13:48:54;;;;;;;14.87;5.20;;;;;;;27.88;54.28;98841.52;1785210;80;21020;-50
2022/08/22 13:51:52;;;;;;;12.33;5.45;;;;;;;27.97;53.60;98845.70;1787192;80;20986;-50
2022/08/22 13:54:26;;;;;;;10.45;4.75;;;;;;;27.86;53.31;98847.12;1787332;80;20979;-42
2022/08/22 13:57:06;;;;;;;14.33;5.03;;;;;;;27.59;54.22;98855.72;1784934;80;21022;-46
2022/08/22 13:59:40;;;;;;;13.95;5.50;;;;;;;27.67;54.28;98860.09;1786734;80;22273;-53
2022/08/22 14:02:43;;;;;;;13.20;4.92;;;;;;;27.69;53.94;98852.63;1785704;80;21055;-43
2022/08/22 14:05:14;;;;;;;10.35;4.92;;;;;;;27.79;54.01;98855.73;1786319;80;21787;-51
2022/08/22 14:08:09;;;;;;;11.50;5.78;;;;;;;27.13;55.21;98854.55;1785961;80;21516;-41
2022/08/22 14:10:40;;;;;;;13.13;5.05;;;;;;;27.03;55.90;98858.13;1785677;80;21051;-48
2022/08/22 14:13:40;;;;;;;8.55;5.08;;;;;;;27.20;55.78;98854.05;1785704;80;21483;-43
2022/08/22 14:16:23;;;;;;;11.43;4.90;;;;;;;27.36;55.49;98857.44;1786782;80;21011;-53
2022/08/22 14:18:54;;;;;;;16.55;5.60;;;;;;;27.09;56.52;98850.59;1722067;83;21054;-55
2022/08/22 14:21:35;;;;;;;14.55;4.83;;;;;;;26.99;56.43;98846.91;1723358;83;21066;-51
2022/08/22 14:24:12;;;;;;;18.35;5.30;;;;;;;26.94;56.81;98851.25;1719120;83;21010;-49
2022/08/22 14:26:43;;;;;;;12.58;5.83;;;;;;;26.94;56.98;98849.91;1722782;83;21030;-51
2022/08/22 14:29:14;;;;;;;16.37;4.80;;;;;;;26.76;57.20;98859.88;1720936;83;21539;-50
2022/08/22 14:31:44;;;;;;;14.33;4.92;;;;;;;26.64;57.37;98859.63;1723445;83;21012;-53
2022/08/22 14:34:13;;;;;;;7.50;4.35;;;;;;;26.80;57.16;98850.37;1719898;82;21551;-48
2022/08/22 14:37:02;;;;;;;12.68;5.20;;;;;;;26.77;57.41;98851.59;1723479;83;21054;-45
2022/08/22 14:39:34;;;;;;;8.15;4.45;;;;;;;26.84;57.56;98861.61;1721537;83;21951;-47
2022/08/22 14:42:05;;;;;;;13.35;4.70;;;;;;;26.88;57.62;98856.11;1730110;82;21476;-47
2022/08/22 14:45:03;;;;;;;12.88;4.33;;;;;;;27.03;57.26;98855.44;1752842;82;21651;-52
2022/08/22 14:47:43;;;;;;;12.85;4.65;;;;;;;27.05;57.37;98846.65;1754931;81;21027;-53
2022/08/22 14:50:38;;;;;;;10.80;5.28;;;;;;;27.13;57.10;98846.45;1778661;81;20991;-53
2022/08/22 14:53:21;;;;;;;9.45;4.42;;;;;;;27.11;57.22;98848.52;1778688;80;21493;-44
2022/08/22 14:56:12;;;;;;;14.40;4.87;;;;;;;27.16;56.97;98848.75;1778702;80;20984;-50
2022/08/22 14:59:04;;;;;;;9.28;4.33;;;;;;;27.08;56.81;98847.57;1772118;81;20983;-51
2022/08/22 15:01:34;;;;;;;7.72;4.50;;;;;;;27.08;56.69;98854.84;1778081;80;20988;-53
2022/08/22 15:04:07;;;;;;;10.68;5.00;;;;;;;27.07;57.05;98859.41;1778737;81;21043;-53
2022/08/22 15:06:53;;;;;;;11.93;4.80;;;;;;;27.01;57.28;98856.16;1778670;81;20979;-53
2022/08/22 15:09:45;;;;;;;13.87;5.33;;;;;;;27.02;57.40;98855.66;1778981;80;21457;-49
2022/08/22 15:12:29;;;;;;;12.90;5.03;;;;;;;26.94;57.43;98847.20;1777741;80;20985;-60
2022/08/22 15:15:01;;;;;;;10.82;5.05;;;;;;;26.92;57.88;98844.70;1778703;81;20967;-52
2022/08/22 15:17:43;;;;;;;13.83;5.28;;;;;;;26.84;58.11;98838.67;1777498;80;20999;-52
2022/08/22 15:20:29;;;;;;;19.10;5.87;;;;;;;26.75;58.22;98842.05;1778669;81;21434;-49
2022/08/22 15:23:20;;;;;;;12.35;4.95;;;;;;;26.50;58.86;98847.07;1778848;81;21484;-58
2022/08/22 15:26:00;;;;;;;10.85;5.20;;;;;;;26.33;58.98;98839.30;1778649;80;20995;-51
2022/08/22 15:28:29;;;;;;;16.73;5.33;;;;;;;25.89;60.76;98839.55;1778651;80;20990;-47
2022/08/22 15:31:06;;;;;;;10.03;4.95;;;;;;;25.86;60.58;98838.92;1756447;81;21054;-48
2022/08/22 15:33:39;;;;;;;13.25;5.37;;;;;;;25.83;61.56;98842.02;1776702;80;20999;-48